createdAt,value
2023-02-08T07:45:42.906Z,139369.53
2023-02-08T07:50:46.525Z,139357.31
2023-02-08T07:55:50.220Z,139426.97
2023-02-08T08:00:56.677Z,139488.06
2023-02-08T08:06:02.556Z,139513.72
2023-02-08T08:11:26.172Z,139579.81
2023-02-08T08:16:40.597Z,139593.25
2023-02-08T08:21:44.995Z,139632.38
2023-02-08T08:26:48.863Z,139692.38
2023-02-08T08:31:53.805Z,139729.03
2023-02-08T08:36:57.396Z,139751.09
2023-02-08T08:42:01.428Z,139808.63
2023-02-08T08:47:06.497Z,139842.91
2023-02-08T08:52:10.054Z,139817.19
2023-02-08T08:57:13.864Z,139820.84
2023-02-08T09:02:19.062Z,139789.03
2023-02-08T09:07:22.942Z,139826.97
2023-02-08T09:12:26.657Z,139850.25
2023-02-08T09:17:37.726Z,139849.00
2023-02-08T09:22:41.352Z,139845.34
2023-02-08T09:27:45.154Z,139829.44
2023-02-08T09:32:52.087Z,139867.41
2023-02-08T09:37:57.928Z,139909.03
2023-02-08T09:43:07.671Z,139966.56
2023-02-08T09:48:33.851Z,139932.31
2023-02-08T09:53:40.609Z,139983.72
2023-02-08T09:58:46.074Z,140005.78
2023-02-08T10:03:53.381Z,139998.47
2023-02-08T10:08:57.424Z,140032.75
2023-02-08T10:14:06.824Z,140075.63
2023-02-08T10:19:15.779Z,140071.97
2023-02-08T10:24:26.595Z,140071.97
2023-02-08T10:29:38.882Z,140068.28
2023-02-08T10:34:45.885Z,140081.81
2023-02-08T10:39:51.068Z,140095.25
2023-02-08T10:45:18.912Z,140107.53
2023-02-08T10:50:32.245Z,140138.19
2023-02-08T10:55:37.466Z,140121.00
2023-02-08T11:00:45.203Z,140123.47
2023-02-08T11:05:53.280Z,140130.81
2023-02-08T11:10:58.958Z,140181.09
2023-02-08T11:16:05.133Z,140217.81
2023-02-08T11:21:14.476Z,140268.13
2023-02-08T11:26:20.110Z,140243.59
2023-02-08T11:31:28.025Z,140266.91
2023-02-08T11:36:34.076Z,140237.47
2023-02-08T11:41:44.844Z,140325.78
2023-02-08T11:46:51.779Z,140378.56
2023-02-08T11:51:58.406Z,140377.34
2023-02-08T11:57:03.360Z,140360.19
2023-02-08T12:02:22.046Z,140367.53
2023-02-08T12:07:33.444Z,140393.31
2023-02-08T12:12:45.031Z,140417.88
2023-02-08T12:18:04.496Z,140417.88
2023-02-08T12:23:20.953Z,140435.03
2023-02-08T12:28:33.872Z,140500.09
2023-02-08T12:33:51.562Z,140462.03
2023-02-08T12:39:27.164Z,140534.47
2023-02-08T12:44:35.950Z,140529.56
2023-02-08T12:49:53.654Z,140493.91
2023-02-08T12:54:59.862Z,140486.56
2023-02-08T13:00:07.359Z,140536.91
2023-02-08T13:05:16.585Z,140516.03
2023-02-08T13:10:26.738Z,140516.03
2023-02-08T13:15:38.454Z,140540.59
2023-02-08T13:20:42.839Z,140577.41
2023-02-08T13:25:47.625Z,140587.28
2023-02-08T13:31:02.740Z,140559.03
2023-02-08T13:36:06.819Z,140559.03
2023-02-08T13:41:17.689Z,140535.69
2023-02-08T13:46:24.088Z,140541.81
2023-02-08T13:51:46.843Z,140572.53
2023-02-08T13:56:53.776Z,140615.53
2023-02-08T14:02:17.695Z,140652.38
2023-02-08T14:08:14.340Z,140637.59
2023-02-08T14:13:25.473Z,140577.41
2023-02-08T14:18:30.645Z,140543.03
2023-02-08T14:23:40.214Z,140507.44
2023-02-08T14:28:50.772Z,140469.41
2023-02-08T14:33:55.860Z,140523.38
2023-02-08T14:39:23.487Z,140538.13
2023-02-08T14:44:54.517Z,140535.69
2023-02-08T14:50:06.041Z,140520.94
2023-02-08T14:55:14.538Z,140484.09
2023-02-08T15:00:20.310Z,140455.91
2023-02-08T15:05:55.981Z,140408.03
2023-02-08T15:11:01.863Z,140421.53
2023-02-08T15:16:06.208Z,140409.25
2023-02-08T15:21:17.338Z,140417.88
2023-02-08T15:26:23.276Z,140388.41
2023-02-08T15:31:29.654Z,140384.69
2023-02-08T15:36:38.676Z,140354.00
2023-02-08T15:41:44.567Z,140327.00
2023-02-08T15:46:49.881Z,140285.31
2023-02-08T15:51:56.934Z,140268.13
2023-02-08T15:57:04.111Z,140239.91
2023-02-08T16:02:19.539Z,140224.00
2023-02-08T16:07:30.299Z,140188.44
2023-02-08T16:12:33.807Z,140181.09
2023-02-08T16:17:38.860Z,140123.47
2023-02-08T16:22:44.088Z,140073.19
2023-02-08T16:27:51.990Z,140054.84
2023-02-08T16:32:55.680Z,140016.81
2023-02-08T16:38:02.365Z,139993.50
2023-02-08T16:43:18.414Z,139953.09
2023-02-08T16:48:31.402Z,139901.69
2023-02-08T16:53:42.265Z,139915.19
2023-02-08T16:58:46.123Z,139885.78
2023-02-08T17:03:50.239Z,139836.78
2023-02-08T17:08:55.095Z,139849.00
2023-02-08T17:13:58.822Z,139840.47
2023-02-08T17:19:06.333Z,139825.75
2023-02-08T17:29:43.082Z,139835.56
2023-02-08T17:34:46.593Z,139819.63
2023-02-08T17:39:51.278Z,139797.56
2023-02-08T17:44:54.694Z,139785.34
2023-02-08T17:49:58.226Z,139770.63
2023-02-08T17:55:03.798Z,139755.97
2023-02-08T18:00:11.434Z,139759.63
2023-02-08T18:05:18.575Z,139759.63
2023-02-08T18:10:24.750Z,139765.75
2023-02-08T18:15:29.172Z,139765.75
2023-02-08T18:20:58.987Z,139771.84
2023-02-08T18:26:36.091Z,139768.19
2023-02-08T18:31:41.118Z,139749.88
2023-02-08T18:36:45.478Z,139727.81
2023-02-08T18:42:36.596Z,139749.88
2023-02-08T18:48:09.204Z,139697.22
2023-02-08T18:53:49.043Z,139686.22
2023-02-08T18:58:54.727Z,139680.13
2023-02-08T19:03:58.733Z,139678.91
2023-02-08T19:09:03.811Z,139663.00
2023-02-08T19:14:10.997Z,139615.28
2023-02-08T19:19:14.430Z,139616.50
2023-02-08T19:24:19.572Z,139603.03
2023-02-08T19:29:24.690Z,139594.47
2023-02-08T19:34:28.064Z,139600.56
2023-02-08T19:39:33.474Z,139618.94
2023-02-08T19:44:41.317Z,139588.38
2023-02-08T19:49:44.621Z,139577.31
2023-02-08T19:54:50.632Z,139583.47
2023-02-08T19:59:55.518Z,139559.00
2023-02-08T20:04:59.449Z,139557.78
2023-02-08T20:10:02.873Z,139578.59
2023-02-08T20:15:07.962Z,139577.31
2023-02-08T20:20:13.864Z,139579.81
2023-02-08T20:25:18.835Z,139582.25
2023-02-08T20:30:26.597Z,139588.38
2023-02-08T20:35:30.447Z,139587.16
2023-02-08T20:40:34.586Z,139572.44
2023-02-08T20:45:41.212Z,139562.66
2023-02-08T20:50:45.098Z,139543.09
2023-02-08T20:55:50.055Z,139536.97
2023-02-08T21:00:55.644Z,139496.66
2023-02-08T21:05:59.286Z,139511.28
2023-02-08T21:11:03.181Z,139513.72
2023-02-08T21:16:08.781Z,139503.97
2023-02-08T21:21:12.860Z,139475.84
2023-02-08T21:33:27.097Z,139461.19
2023-02-08T21:38:30.625Z,139431.84
2023-02-08T21:43:34.052Z,139390.31
2023-02-08T21:48:53.034Z,139412.31
2023-02-08T21:54:13.980Z,139400.06
2023-02-08T21:59:17.328Z,139408.63
2023-02-08T22:04:22.345Z,139401.28
2023-02-08T22:09:26.725Z,139381.72
2023-02-08T22:14:30.252Z,139379.28
2023-02-08T22:19:35.111Z,139376.84
2023-02-08T22:24:40.993Z,139374.41
2023-02-08T22:29:44.588Z,139357.31
2023-02-08T22:34:54.045Z,139367.09
